createdAt,value
2022-10-15T00:01:53.372Z,15.70
2022-10-15T00:05:12.427Z,15.70
2022-10-15T00:11:39.984Z,15.70
2022-10-15T00:14:43.796Z,15.70
2022-10-15T00:18:06.637Z,15.70
2022-10-15T00:21:21.364Z,15.80
2022-10-15T00:24:27.117Z,15.80
2022-10-15T00:27:46.836Z,15.80
2022-10-15T00:31:00.449Z,15.80
2022-10-15T00:34:01.664Z,15.80
2022-10-15T00:37:18.307Z,15.80
2022-10-15T00:40:27.085Z,15.80
2022-10-15T00:43:34.711Z,15.90
2022-10-15T00:46:48.298Z,15.90
2022-10-15T00:50:02.843Z,15.90
2022-10-15T00:53:16.452Z,15.90
2022-10-15T00:56:34.150Z,15.90
2022-10-15T00:59:41.630Z,15.90
2022-10-15T01:02:59.051Z,15.90
2022-10-15T01:06:12.752Z,15.90
2022-10-15T01:09:24.660Z,15.90
2022-10-15T01:12:43.042Z,15.90
2022-10-15T01:34:59.414Z,15.90
2022-10-15T01:38:19.128Z,15.90
2022-10-15T01:41:26.394Z,15.90
2022-10-15T01:44:49.185Z,15.90
2022-10-15T01:51:19.369Z,16.00
2022-10-15T01:54:23.927Z,16.00
2022-10-15T02:00:57.265Z,16.00
2022-10-15T02:04:08.661Z,16.00
2022-10-15T02:07:12.919Z,16.00
2022-10-15T02:10:26.585Z,16.00
2022-10-15T02:13:37.169Z,16.00
2022-10-15T02:16:56.530Z,16.00
2022-10-15T02:20:05.884Z,16.00
2022-10-15T02:23:15.834Z,16.00
2022-10-15T02:26:26.337Z,16.00
2022-10-15T02:29:43.591Z,16.00
2022-10-15T02:36:03.724Z,16.00
2022-10-15T02:39:20.438Z,16.00
2022-10-15T02:42:27.674Z,16.00
2022-10-15T02:45:38.584Z,16.10
2022-10-15T02:48:52.211Z,16.00
2022-10-15T02:52:11.911Z,16.00
2022-10-15T02:55:19.456Z,16.00
2022-10-15T02:58:32.354Z,16.00
2022-10-15T03:01:48.896Z,16.00
2022-10-15T03:04:59.495Z,16.00
2022-10-15T03:08:10.105Z,16.10
2022-10-15T03:11:32.698Z,16.00
2022-10-15T03:14:43.119Z,16.00
2022-10-15T03:21:01.903Z,16.00
2022-10-15T03:24:16.651Z,16.00
2022-10-15T03:27:27.206Z,16.00
2022-10-15T03:30:37.794Z,16.00
2022-10-15T03:33:45.188Z,16.00
2022-10-15T03:37:01.651Z,16.00
2022-10-15T03:40:18.377Z,15.90
2022-10-15T03:43:32.646Z,15.90
2022-10-15T03:46:36.784Z,15.90
2022-10-15T03:50:03.097Z,15.90
2022-10-15T03:53:07.332Z,15.90
2022-10-15T03:56:25.132Z,15.90
2022-10-15T03:59:39.253Z,15.90
2022-10-15T04:02:49.911Z,15.90
2022-10-15T04:06:07.099Z,15.90
2022-10-15T04:09:19.533Z,15.90
2022-10-15T04:12:30.351Z,15.90
2022-10-15T04:15:38.705Z,15.90
2022-10-15T04:18:55.453Z,15.90
2022-10-15T04:22:03.896Z,15.90
2022-10-15T04:25:11.193Z,15.90
2022-10-15T04:28:29.060Z,15.90
2022-10-15T04:31:51.876Z,15.80
2022-10-15T04:35:00.455Z,15.80
2022-10-15T04:38:10.970Z,15.80
2022-10-15T04:41:21.511Z,15.80
2022-10-15T04:44:31.982Z,15.80
2022-10-15T04:47:49.567Z,15.80
2022-10-15T04:51:00.446Z,15.80
2022-10-15T04:57:30.647Z,15.70
2022-10-15T05:00:38.147Z,15.70
2022-10-15T05:04:00.640Z,15.70
2022-10-15T05:07:17.377Z,15.70
2022-10-15T05:10:27.740Z,15.70
2022-10-15T05:13:50.378Z,15.70
2022-10-15T05:17:05.037Z,15.70
2022-10-15T05:20:22.263Z,15.70
2022-10-15T05:23:36.874Z,15.70
2022-10-15T05:26:40.698Z,15.70
2022-10-15T05:29:57.379Z,15.70
2022-10-15T05:33:20.790Z,15.70
2022-10-15T05:36:31.456Z,15.70
2022-10-15T05:39:42.306Z,15.70
2022-10-15T05:43:05.114Z,15.70
2022-10-15T05:46:15.513Z,15.80
2022-10-15T05:49:19.776Z,15.80
2022-10-15T05:52:36.195Z,15.80
2022-10-15T05:55:46.772Z,15.80
2022-10-15T05:59:05.073Z,15.80
2022-10-15T06:02:16.498Z,15.80
2022-10-15T06:05:33.909Z,15.80
2022-10-15T06:08:41.336Z,15.80
2022-10-15T06:11:51.923Z,15.80
2022-10-15T06:15:11.603Z,15.80
2022-10-15T06:18:18.360Z,15.80
2022-10-15T06:21:25.885Z,15.80
2022-10-15T06:24:42.766Z,15.80
2022-10-15T06:27:56.554Z,15.80
2022-10-15T06:42:10.743Z,15.80
2022-10-15T06:45:18.111Z,15.80
2022-10-15T06:48:31.346Z,15.90
2022-10-15T06:51:44.964Z,15.90
2022-10-15T06:54:55.384Z,15.90
2022-10-15T06:58:05.720Z,15.90
2022-10-15T07:01:13.077Z,15.90
2022-10-15T07:04:26.597Z,15.90
2022-10-15T07:07:43.533Z,15.90
2022-10-15T07:10:54.140Z,16.00
2022-10-15T07:14:07.809Z,15.90
2022-10-15T07:17:24.767Z,16.00
2022-10-15T07:20:35.282Z,16.00
2022-10-15T07:23:42.709Z,16.00
2022-10-15T07:30:10.393Z,16.00
2022-10-15T07:33:34.578Z,16.00
2022-10-15T07:40:00.839Z,16.00
2022-10-15T07:46:29.013Z,16.00
2022-10-15T08:12:07.263Z,16.10
2022-10-15T08:15:25.351Z,16.10
2022-10-15T08:18:36.218Z,16.10
2022-10-15T08:21:47.548Z,16.20
2022-10-15T08:24:57.990Z,16.10
2022-10-15T08:28:15.459Z,16.20
2022-10-15T08:31:22.788Z,16.20
2022-10-15T08:34:33.297Z,16.30
2022-10-15T08:37:46.971Z,16.30
2022-10-15T08:40:57.734Z,16.40
2022-10-15T08:44:16.037Z,16.30
2022-10-15T08:47:30.315Z,16.40
2022-10-15T08:50:43.026Z,16.30
2022-10-15T08:53:49.576Z,16.30
2022-10-15T08:57:06.235Z,16.30
2022-10-15T09:00:25.073Z,16.40
2022-10-15T09:03:34.281Z,16.40
2022-10-15T09:06:50.804Z,16.50
2022-10-15T09:10:05.001Z,16.50
2022-10-15T09:16:34.576Z,16.50
2022-10-15T09:19:48.284Z,16.50
2022-10-15T09:23:05.227Z,16.50
2022-10-15T09:26:12.619Z,16.60
2022-10-15T09:29:23.883Z,16.70
2022-10-15T09:32:45.096Z,16.70
2022-10-15T09:35:54.939Z,16.80
2022-10-15T09:39:15.113Z,16.90
2022-10-15T09:42:31.735Z,16.90
2022-10-15T09:45:40.428Z,17.00
2022-10-15T09:48:51.092Z,17.00
2022-10-15T09:52:05.188Z,17.00
2022-10-15T09:55:20.144Z,17.10
2022-10-15T09:58:27.810Z,17.10
2022-10-15T10:01:41.225Z,17.10
2022-10-15T10:04:59.023Z,17.10
2022-10-15T10:08:10.271Z,17.10
2022-10-15T10:11:28.311Z,17.10
2022-10-15T10:17:53.344Z,17.10
2022-10-15T10:21:01.423Z,17.10
2022-10-15T10:24:11.077Z,17.10
2022-10-15T10:27:30.704Z,17.10
2022-10-15T10:30:44.114Z,17.10
2022-10-15T10:33:53.166Z,17.20
2022-10-15T10:37:11.373Z,17.20
2022-10-15T10:40:25.994Z,17.20
2022-10-15T10:43:38.231Z,17.20
2022-10-15T10:46:49.370Z,17.10
2022-10-15T10:50:02.858Z,17.10
2022-10-15T10:53:19.687Z,17.10
2022-10-15T10:56:33.427Z,17.10
2022-10-15T10:59:53.442Z,17.10
2022-10-15T11:03:06.932Z,17.20
2022-10-15T11:06:11.510Z,17.20
2022-10-15T11:09:28.215Z,17.20
2022-10-15T11:12:44.711Z,17.10
2022-10-15T11:15:51.861Z,17.10
2022-10-15T11:19:06.219Z,17.10
2022-10-15T11:25:30.201Z,17.00
2022-10-15T11:51:21.573Z,17.20
2022-10-15T11:54:32.079Z,17.20
2022-10-15T11:57:45.561Z,17.20
2022-10-15T12:00:59.056Z,17.20
2022-10-15T12:04:21.526Z,17.30
2022-10-15T12:07:28.910Z,17.30
2022-10-15T12:10:39.117Z,17.40
2022-10-15T12:13:49.530Z,17.40
2022-10-15T12:17:06.136Z,17.30
2022-10-15T12:20:25.985Z,17.30
2022-10-15T12:23:36.258Z,17.20
2022-10-15T12:26:49.812Z,17.30
2022-10-15T12:30:06.584Z,17.30
2022-10-15T12:33:15.752Z,17.30
2022-10-15T12:39:57.476Z,17.30
2022-10-15T12:42:51.099Z,17.40
2022-10-15T12:46:00.111Z,17.40
2022-10-15T12:49:10.223Z,17.40
2022-10-15T12:52:23.481Z,17.40
2022-10-15T12:55:39.659Z,17.50
2022-10-15T12:58:51.412Z,17.40
2022-10-15T13:02:01.988Z,17.40
2022-10-15T13:05:28.360Z,17.40
2022-10-15T13:31:19.478Z,17.40
2022-10-15T13:57:14.941Z,18.00
2022-10-15T14:00:22.341Z,18.00
2022-10-15T14:03:39.914Z,18.00
2022-10-15T14:06:57.192Z,18.00
2022-10-15T14:10:14.742Z,18.00
2022-10-15T14:32:23.990Z,18.10
2022-10-15T14:34:52.268Z,18.20
2022-10-15T14:37:37.464Z,18.10
2022-10-15T14:40:13.311Z,18.20
2022-10-15T14:42:41.245Z,18.10
2022-10-15T14:45:20.916Z,18.10
2022-10-15T14:47:57.170Z,18.10
2022-10-15T14:50:30.951Z,18.10
2022-10-15T14:52:59.387Z,18.10
2022-10-15T14:55:33.487Z,18.10
2022-10-15T14:58:08.787Z,18.10
2022-10-15T15:00:42.636Z,18.10
2022-10-15T15:03:17.425Z,18.10
2022-10-15T15:05:50.154Z,18.10
2022-10-15T15:08:16.924Z,18.10
2022-10-15T15:10:44.883Z,18.00
2022-10-15T15:13:22.493Z,18.00
2022-10-15T15:15:49.505Z,18.00
2022-10-15T15:18:17.966Z,18.00
2022-10-15T15:20:46.381Z,18.00
2022-10-15T15:23:26.657Z,18.00
2022-10-15T15:25:54.194Z,18.00
2022-10-15T15:28:23.680Z,17.90
2022-10-15T15:31:03.031Z,17.90
2022-10-15T15:33:29.747Z,17.90
2022-10-15T15:36:00.930Z,17.90
2022-10-15T15:38:30.896Z,17.80
2022-10-15T15:41:11.440Z,17.80
2022-10-15T15:43:38.313Z,17.80
2022-10-15T15:46:05.056Z,17.70
2022-10-15T15:48:32.075Z,17.70
2022-10-15T15:51:03.633Z,17.60
2022-10-15T15:53:30.503Z,17.60
2022-10-15T15:55:57.496Z,17.60
2022-10-15T15:58:24.380Z,17.60
2022-10-15T16:00:51.154Z,17.60
2022-10-15T16:03:17.840Z,17.50
2022-10-15T16:05:44.507Z,17.50
2022-10-15T16:08:12.734Z,17.50
2022-10-15T16:10:39.500Z,17.40
2022-10-15T16:13:06.290Z,17.40
2022-10-15T16:15:32.963Z,17.40
2022-10-15T16:17:59.650Z,17.40
2022-10-15T16:20:26.343Z,17.30
2022-10-15T16:22:53.844Z,17.40
2022-10-15T16:25:23.254Z,17.40
2022-10-15T16:27:51.976Z,17.30
2022-10-15T16:30:20.528Z,17.30
2022-10-15T16:32:47.176Z,17.30
2022-10-15T16:35:13.883Z,17.30
2022-10-15T16:37:40.547Z,17.30
2022-10-15T16:40:08.063Z,17.30
2022-10-15T16:42:34.822Z,17.20
2022-10-15T16:45:01.455Z,17.30
2022-10-15T16:47:28.445Z,17.20
2022-10-15T16:49:55.644Z,17.20
2022-10-15T16:52:25.126Z,17.20
2022-10-15T16:54:51.931Z,17.20
2022-10-15T16:57:18.578Z,17.20
2022-10-15T16:59:45.345Z,17.10
2022-10-15T17:02:12.075Z,17.10
2022-10-15T17:04:38.715Z,17.10
2022-10-15T17:07:05.387Z,17.10
2022-10-15T17:09:32.238Z,17.10
2022-10-15T17:11:58.923Z,17.10
2022-10-15T17:14:25.654Z,17.10
2022-10-15T17:16:53.234Z,17.10
2022-10-15T17:19:23.490Z,17.10
2022-10-15T17:21:50.750Z,17.00
2022-10-15T17:24:18.657Z,17.00
2022-10-15T17:26:46.599Z,17.00
2022-10-15T17:29:16.561Z,17.00
2022-10-15T17:31:43.556Z,17.00
2022-10-15T17:34:11.680Z,17.00
2022-10-15T17:36:47.267Z,17.00
2022-10-15T17:39:16.306Z,17.00
2022-10-15T17:41:43.812Z,16.90
2022-10-15T17:44:13.641Z,16.90
2022-10-15T17:46:40.549Z,16.90
2022-10-15T17:49:09.551Z,16.90
2022-10-15T17:51:36.476Z,16.90
2022-10-15T17:54:03.199Z,16.80
2022-10-15T17:56:32.335Z,16.80
2022-10-15T17:59:00.296Z,16.80
2022-10-15T18:01:53.170Z,16.80
2022-10-15T18:04:18.925Z,16.80
2022-10-15T18:06:45.590Z,16.80
2022-10-15T18:09:12.247Z,16.70
2022-10-15T18:11:38.932Z,16.70
2022-10-15T18:14:05.647Z,16.70
2022-10-15T18:16:32.623Z,16.70
2022-10-15T18:18:59.378Z,16.60
2022-10-15T18:21:27.436Z,16.60
2022-10-15T18:23:56.473Z,16.70
2022-10-15T18:26:23.884Z,16.60
2022-10-15T18:28:52.142Z,16.60
2022-10-15T18:31:19.659Z,16.60
2022-10-15T18:33:51.550Z,16.60
2022-10-15T18:36:28.251Z,16.60
2022-10-15T18:38:56.467Z,16.60
2022-10-15T18:41:27.712Z,16.60
2022-10-15T18:43:56.983Z,16.60
2022-10-15T18:46:24.129Z,16.60
2022-10-15T18:48:51.266Z,16.60
2022-10-15T18:51:18.570Z,16.60
2022-10-15T18:53:45.479Z,16.60
2022-10-15T18:56:13.833Z,16.60
2022-10-15T18:58:44.480Z,16.60
2022-10-15T19:01:13.498Z,16.60
2022-10-15T19:03:40.988Z,16.60
2022-10-15T19:06:08.790Z,16.50
2022-10-15T19:08:35.435Z,16.50
2022-10-15T19:11:06.932Z,16.50
2022-10-15T19:13:33.600Z,16.60
2022-10-15T19:16:04.582Z,16.50
2022-10-15T19:18:32.648Z,16.60
2022-10-15T19:20:59.690Z,16.50
2022-10-15T19:23:26.541Z,16.60
2022-10-15T19:25:53.284Z,16.60
2022-10-15T19:28:20.073Z,16.60
2022-10-15T19:30:54.761Z,16.50
2022-10-15T19:33:21.445Z,16.50
2022-10-15T19:35:48.059Z,16.50
2022-10-15T19:38:14.709Z,16.60
2022-10-15T19:40:44.752Z,16.50
2022-10-15T19:43:14.489Z,16.50
2022-10-15T19:45:45.406Z,16.60
2022-10-15T19:48:14.001Z,16.50
2022-10-15T19:50:43.354Z,16.60
2022-10-15T19:53:12.663Z,16.60
2022-10-15T19:55:40.322Z,16.60
2022-10-15T19:58:06.991Z,16.60
2022-10-15T20:00:33.719Z,16.60
2022-10-15T20:03:00.698Z,16.60
2022-10-15T20:05:27.421Z,16.60
2022-10-15T20:07:54.096Z,16.50
2022-10-15T20:10:24.952Z,16.60
2022-10-15T20:12:52.754Z,16.60
2022-10-15T20:15:19.467Z,16.60
2022-10-15T20:17:46.813Z,16.60
2022-10-15T20:20:13.529Z,16.60
2022-10-15T20:22:40.175Z,16.60
2022-10-15T20:25:07.037Z,16.60
2022-10-15T20:27:33.773Z,16.60
2022-10-15T20:30:00.461Z,16.60
2022-10-15T20:32:34.841Z,16.60
2022-10-15T20:35:03.366Z,16.60
2022-10-15T20:37:30.196Z,16.60
2022-10-15T20:42:28.766Z,16.60
2022-10-15T20:44:55.716Z,16.60
2022-10-15T20:47:23.196Z,16.60
2022-10-15T20:49:52.258Z,16.70
2022-10-15T20:52:19.173Z,16.60
2022-10-15T20:54:46.008Z,16.60
2022-10-15T20:57:12.841Z,16.60
2022-10-15T20:59:39.522Z,16.60
2022-10-15T21:02:06.589Z,16.60
2022-10-15T21:04:33.392Z,16.60
2022-10-15T21:07:00.158Z,16.60
2022-10-15T21:09:26.865Z,16.60
2022-10-15T21:11:53.522Z,16.70
2022-10-15T21:14:20.196Z,16.60
2022-10-15T21:16:46.898Z,16.60
2022-10-15T21:19:14.087Z,16.60
2022-10-15T21:21:40.733Z,16.60
2022-10-15T21:24:07.413Z,16.60
2022-10-15T21:26:34.127Z,16.60
2022-10-15T21:29:00.848Z,16.60
2022-10-15T21:31:27.687Z,16.60
2022-10-15T21:33:57.756Z,16.60
2022-10-15T21:36:26.956Z,16.60
2022-10-15T21:38:56.022Z,16.60
2022-10-15T21:41:23.575Z,16.60
2022-10-15T21:46:17.380Z,16.60
2022-10-15T21:48:44.940Z,16.60
2022-10-15T21:51:17.677Z,16.60
2022-10-15T21:53:44.583Z,16.60
2022-10-15T21:56:11.423Z,16.50
2022-10-15T21:58:40.018Z,16.50
2022-10-15T22:01:19.435Z,16.50
2022-10-15T22:03:46.638Z,16.50
2022-10-15T22:06:13.995Z,16.50
2022-10-15T22:08:40.858Z,16.50
2022-10-15T22:11:16.363Z,16.50
2022-10-15T22:13:44.610Z,16.50
2022-10-15T22:16:12.306Z,16.50
2022-10-15T22:18:39.473Z,16.50
2022-10-15T22:21:15.939Z,16.50
2022-10-15T22:23:56.056Z,16.50
2022-10-15T22:26:26.420Z,16.40
2022-10-15T22:28:59.257Z,16.50
2022-10-15T22:31:26.579Z,16.40
2022-10-15T22:33:53.844Z,16.40
2022-10-15T22:36:26.765Z,16.40
2022-10-15T22:39:02.500Z,16.40
2022-10-15T22:41:39.590Z,16.40
2022-10-15T22:44:14.699Z,16.40
2022-10-15T22:46:41.735Z,16.40
2022-10-15T22:49:10.060Z,16.30
2022-10-15T22:51:36.766Z,16.40
2022-10-15T22:54:03.506Z,16.30
2022-10-15T22:56:30.989Z,16.30
2022-10-15T22:58:58.506Z,16.30
2022-10-15T23:01:31.033Z,16.30
2022-10-15T23:04:01.475Z,16.30
2022-10-15T23:06:29.858Z,16.30
2022-10-15T23:08:58.067Z,16.30
2022-10-15T23:11:28.221Z,16.30
2022-10-15T23:13:57.840Z,16.20
2022-10-15T23:16:27.260Z,16.20
2022-10-15T23:18:56.903Z,16.20
2022-10-15T23:21:37.230Z,16.20
2022-10-15T23:24:04.997Z,16.30
2022-10-15T23:26:31.730Z,16.30
2022-10-15T23:29:00.028Z,16.20
2022-10-15T23:31:32.869Z,16.20
2022-10-15T23:34:00.663Z,16.20
2022-10-15T23:36:29.264Z,16.20
2022-10-15T23:39:01.360Z,16.20
2022-10-15T23:41:28.798Z,16.20
2022-10-15T23:43:56.174Z,16.30
2022-10-15T23:46:23.040Z,16.20
2022-10-15T23:48:49.879Z,16.30
2022-10-15T23:51:24.705Z,16.20
2022-10-15T23:53:52.685Z,16.20
2022-10-15T23:56:19.771Z,16.20
2022-10-15T23:58:51.397Z,16.20
